sensor_id;sensor_type;location;lat;lon;timestamp;P1;durP1;ratioP1;P2;durP2;ratioP2
21281;SDS011;10800;53.096;18.328;2022-11-04T00:04:54;6.63;;;2.20;;
21281;SDS011;10800;53.096;18.328;2022-11-04T00:10:00;7.57;;;3.20;;
21281;SDS011;10800;53.096;18.328;2022-11-04T00:15:05;6.17;;;2.97;;
21281;SDS011;10800;53.096;18.328;2022-11-04T00:20:29;5.87;;;3.47;;
21281;SDS011;10800;53.096;18.328;2022-11-04T00:25:52;6.33;;;2.30;;
21281;SDS011;10800;53.096;18.328;2022-11-04T00:31:16;5.60;;;2.77;;
21281;SDS011;10800;53.096;18.328;2022-11-04T00:36:39;10.20;;;2.83;;
21281;SDS011;10800;53.096;18.328;2022-11-04T00:41:45;8.67;;;2.87;;
21281;SDS011;10800;53.096;18.328;2022-11-04T00:46:50;13.20;;;2.70;;
21281;SDS011;10800;53.096;18.328;2022-11-04T00:51:55;4.27;;;3.13;;
21281;SDS011;10800;53.096;18.328;2022-11-04T00:57:00;4.77;;;2.40;;
21281;SDS011;10800;53.096;18.328;2022-11-04T01:02:07;9.10;;;3.23;;
21281;SDS011;10800;53.096;18.328;2022-11-04T01:07:13;6.03;;;2.53;;
21281;SDS011;10800;53.096;18.328;2022-11-04T01:12:19;6.77;;;2.23;;
21281;SDS011;10800;53.096;18.328;2022-11-04T01:17:24;5.77;;;2.93;;
21281;SDS011;10800;53.096;18.328;2022-11-04T01:22:29;9.27;;;2.63;;
21281;SDS011;10800;53.096;18.328;2022-11-04T01:27:35;7.10;;;2.50;;
21281;SDS011;10800;53.096;18.328;2022-11-04T01:32:40;2.73;;;1.80;;
21281;SDS011;10800;53.096;18.328;2022-11-04T01:37:46;5.57;;;2.97;;
21281;SDS011;10800;53.096;18.328;2022-11-04T01:42:51;12.70;;;3.33;;
21281;SDS011;10800;53.096;18.328;2022-11-04T01:48:04;7.07;;;2.80;;
21281;SDS011;10800;53.096;18.328;2022-11-04T01:53:12;9.83;;;3.13;;
21281;SDS011;10800;53.096;18.328;2022-11-04T01:58:19;5.07;;;2.73;;
21281;SDS011;10800;53.096;18.328;2022-11-04T02:03:39;5.97;;;3.20;;
21281;SDS011;10800;53.096;18.328;2022-11-04T02:08:42;3.60;;;2.50;;
21281;SDS011;10800;53.096;18.328;2022-11-04T02:13:48;10.20;;;3.20;;
21281;SDS011;10800;53.096;18.328;2022-11-04T02:19:07;12.57;;;4.00;;
21281;SDS011;10800;53.096;18.328;2022-11-04T02:24:20;8.73;;;2.90;;
21281;SDS011;10800;53.096;18.328;2022-11-04T02:29:26;7.77;;;2.90;;
21281;SDS011;10800;53.096;18.328;2022-11-04T02:34:41;6.53;;;2.70;;
21281;SDS011;10800;53.096;18.328;2022-11-04T02:40:15;5.00;;;2.57;;
21281;SDS011;10800;53.096;18.328;2022-11-04T02:50:28;3.50;;;2.30;;
21281;SDS011;10800;53.096;18.328;2022-11-04T02:55:38;15.97;;;3.53;;
21281;SDS011;10800;53.096;18.328;2022-11-04T03:00:45;7.80;;;2.80;;
21281;SDS011;10800;53.096;18.328;2022-11-04T03:05:53;8.87;;;3.30;;
21281;SDS011;10800;53.096;18.328;2022-11-04T03:11:02;6.53;;;3.37;;
21281;SDS011;10800;53.096;18.328;2022-11-04T03:16:10;6.13;;;2.43;;
21281;SDS011;10800;53.096;18.328;2022-11-04T03:21:16;7.27;;;3.23;;
21281;SDS011;10800;53.096;18.328;2022-11-04T03:31:42;3.97;;;2.27;;
21281;SDS011;10800;53.096;18.328;2022-11-04T03:36:44;7.07;;;2.87;;
21281;SDS011;10800;53.096;18.328;2022-11-04T03:41:51;16.30;;;2.80;;
21281;SDS011;10800;53.096;18.328;2022-11-04T03:46:58;4.13;;;2.43;;
21281;SDS011;10800;53.096;18.328;2022-11-04T03:52:03;5.73;;;2.23;;
21281;SDS011;10800;53.096;18.328;2022-11-04T04:13:35;6.93;;;3.13;;
21281;SDS011;10800;53.096;18.328;2022-11-04T04:18:56;2.57;;;1.83;;
21281;SDS011;10800;53.096;18.328;2022-11-04T04:24:01;2.93;;;1.40;;
21281;SDS011;10800;53.096;18.328;2022-11-04T04:29:27;11.40;;;2.97;;
21281;SDS011;10800;53.096;18.328;2022-11-04T04:34:34;6.97;;;2.97;;
21281;SDS011;10800;53.096;18.328;2022-11-04T04:39:54;9.13;;;2.97;;
21281;SDS011;10800;53.096;18.328;2022-11-04T04:45:20;8.23;;;3.37;;
21281;SDS011;10800;53.096;18.328;2022-11-04T04:50:32;4.63;;;2.53;;
21281;SDS011;10800;53.096;18.328;2022-11-04T04:55:38;7.83;;;3.23;;
21281;SDS011;10800;53.096;18.328;2022-11-04T05:00:44;4.77;;;2.53;;
21281;SDS011;10800;53.096;18.328;2022-11-04T05:05:49;5.73;;;2.13;;
21281;SDS011;10800;53.096;18.328;2022-11-04T05:10:57;7.00;;;2.90;;
21281;SDS011;10800;53.096;18.328;2022-11-04T05:16:04;10.40;;;3.17;;
21281;SDS011;10800;53.096;18.328;2022-11-04T05:21:13;5.43;;;3.43;;
21281;SDS011;10800;53.096;18.328;2022-11-04T05:26:19;10.57;;;3.23;;
21281;SDS011;10800;53.096;18.328;2022-11-04T05:31:25;24.13;;;8.70;;
21281;SDS011;10800;53.096;18.328;2022-11-04T05:36:32;14.50;;;6.37;;
21281;SDS011;10800;53.096;18.328;2022-11-04T05:41:38;7.13;;;3.03;;
21281;SDS011;10800;53.096;18.328;2022-11-04T05:46:43;10.90;;;5.17;;
21281;SDS011;10800;53.096;18.328;2022-11-04T05:51:48;16.43;;;4.67;;
21281;SDS011;10800;53.096;18.328;2022-11-04T05:56:54;10.13;;;3.97;;
21281;SDS011;10800;53.096;18.328;2022-11-04T06:01:59;9.83;;;3.40;;
21281;SDS011;10800;53.096;18.328;2022-11-04T06:07:06;8.67;;;4.03;;
21281;SDS011;10800;53.096;18.328;2022-11-04T06:12:13;8.40;;;2.63;;
21281;SDS011;10800;53.096;18.328;2022-11-04T06:17:20;10.50;;;2.97;;
21281;SDS011;10800;53.096;18.328;2022-11-04T06:22:29;16.73;;;4.10;;
21281;SDS011;10800;53.096;18.328;2022-11-04T06:27:34;5.73;;;3.03;;
21281;SDS011;10800;53.096;18.328;2022-11-04T06:32:39;10.50;;;3.63;;
21281;SDS011;10800;53.096;18.328;2022-11-04T06:37:45;8.70;;;3.90;;
21281;SDS011;10800;53.096;18.328;2022-11-04T06:42:51;7.70;;;3.17;;
21281;SDS011;10800;53.096;18.328;2022-11-04T06:47:56;5.43;;;3.10;;
21281;SDS011;10800;53.096;18.328;2022-11-04T06:53:03;8.40;;;3.50;;
21281;SDS011;10800;53.096;18.328;2022-11-04T06:58:09;12.10;;;4.20;;
21281;SDS011;10800;53.096;18.328;2022-11-04T07:03:15;10.27;;;4.57;;
21281;SDS011;10800;53.096;18.328;2022-11-04T07:08:20;10.57;;;4.37;;
21281;SDS011;10800;53.096;18.328;2022-11-04T07:13:25;14.17;;;4.27;;
21281;SDS011;10800;53.096;18.328;2022-11-04T07:18:31;11.90;;;4.77;;
21281;SDS011;10800;53.096;18.328;2022-11-04T07:23:37;5.60;;;3.20;;
21281;SDS011;10800;53.096;18.328;2022-11-04T07:28:43;19.00;;;4.90;;
21281;SDS011;10800;53.096;18.328;2022-11-04T07:33:48;6.43;;;3.70;;
21281;SDS011;10800;53.096;18.328;2022-11-04T07:38:54;9.60;;;4.20;;
21281;SDS011;10800;53.096;18.328;2022-11-04T07:43:59;10.00;;;3.63;;
21281;SDS011;10800;53.096;18.328;2022-11-04T07:49:06;10.43;;;4.17;;
21281;SDS011;10800;53.096;18.328;2022-11-04T07:54:11;8.77;;;4.03;;
21281;SDS011;10800;53.096;18.328;2022-11-04T07:59:17;10.17;;;3.80;;
21281;SDS011;10800;53.096;18.328;2022-11-04T08:04:22;12.43;;;4.27;;
21281;SDS011;10800;53.096;18.328;2022-11-04T08:09:27;10.40;;;3.93;;
21281;SDS011;10800;53.096;18.328;2022-11-04T08:14:32;12.23;;;4.50;;
21281;SDS011;10800;53.096;18.328;2022-11-04T08:19:38;19.87;;;5.77;;
21281;SDS011;10800;53.096;18.328;2022-11-04T08:24:43;21.93;;;8.50;;
21281;SDS011;10800;53.096;18.328;2022-11-04T08:29:52;13.23;;;5.60;;
21281;SDS011;10800;53.096;18.328;2022-11-04T08:34:57;13.70;;;4.30;;
21281;SDS011;10800;53.096;18.328;2022-11-04T08:40:02;9.63;;;4.37;;
21281;SDS011;10800;53.096;18.328;2022-11-04T08:45:08;4.77;;;3.00;;
21281;SDS011;10800;53.096;18.328;2022-11-04T08:50:13;9.00;;;4.10;;
21281;SDS011;10800;53.096;18.328;2022-11-04T08:55:19;8.63;;;4.07;;
21281;SDS011;10800;53.096;18.328;2022-11-04T09:00:24;17.47;;;4.80;;
21281;SDS011;10800;53.096;18.328;2022-11-04T09:05:29;9.17;;;3.30;;
21281;SDS011;10800;53.096;18.328;2022-11-04T09:10:39;12.47;;;4.17;;
21281;SDS011;10800;53.096;18.328;2022-11-04T09:15:47;11.17;;;4.80;;
21281;SDS011;10800;53.096;18.328;2022-11-04T09:20:52;9.17;;;4.77;;
21281;SDS011;10800;53.096;18.328;2022-11-04T09:26:02;11.83;;;4.13;;
21281;SDS011;10800;53.096;18.328;2022-11-04T09:31:10;9.70;;;4.50;;
21281;SDS011;10800;53.096;18.328;2022-11-04T09:36:21;13.30;;;4.77;;
21281;SDS011;10800;53.096;18.328;2022-11-04T09:47:03;10.73;;;3.57;;
21281;SDS011;10800;53.096;18.328;2022-11-04T09:52:20;10.93;;;3.50;;
21281;SDS011;10800;53.096;18.328;2022-11-04T09:57:27;11.37;;;4.50;;
21281;SDS011;10800;53.096;18.328;2022-11-04T10:29:35;5.80;;;2.90;;
21281;SDS011;10800;53.096;18.328;2022-11-04T10:34:57;10.03;;;3.60;;
21281;SDS011;10800;53.096;18.328;2022-11-04T10:40:15;6.87;;;2.90;;
21281;SDS011;10800;53.096;18.328;2022-11-04T10:45:45;8.83;;;3.97;;
21281;SDS011;10800;53.096;18.328;2022-11-04T10:50:53;8.70;;;4.80;;
21281;SDS011;10800;53.096;18.328;2022-11-04T11:01:29;9.83;;;3.90;;
21281;SDS011;10800;53.096;18.328;2022-11-04T11:06:37;12.30;;;4.53;;
21281;SDS011;10800;53.096;18.328;2022-11-04T11:11:49;9.90;;;4.40;;
21281;SDS011;10800;53.096;18.328;2022-11-04T11:16:56;14.70;;;5.53;;
21281;SDS011;10800;53.096;18.328;2022-11-04T11:27:36;11.77;;;4.70;;
21281;SDS011;10800;53.096;18.328;2022-11-04T11:32:42;8.40;;;4.53;;
21281;SDS011;10800;53.096;18.328;2022-11-04T11:37:49;14.47;;;5.60;;
21281;SDS011;10800;53.096;18.328;2022-11-04T11:42:54;16.13;;;6.47;;
21281;SDS011;10800;53.096;18.328;2022-11-04T11:48:01;10.00;;;4.87;;
21281;SDS011;10800;53.096;18.328;2022-11-04T11:53:11;12.27;;;4.43;;
21281;SDS011;10800;53.096;18.328;2022-11-04T11:58:31;10.40;;;3.60;;
21281;SDS011;10800;53.096;18.328;2022-11-04T12:03:51;7.03;;;4.30;;
21281;SDS011;10800;53.096;18.328;2022-11-04T12:19:39;14.83;;;4.33;;
21281;SDS011;10800;53.096;18.328;2022-11-04T12:40:28;13.37;;;4.83;;
21281;SDS011;10800;53.096;18.328;2022-11-04T12:45:57;10.60;;;4.90;;
21281;SDS011;10800;53.096;18.328;2022-11-04T12:56:34;13.30;;;4.73;;
21281;SDS011;10800;53.096;18.328;2022-11-04T13:01:42;6.90;;;4.03;;
21281;SDS011;10800;53.096;18.328;2022-11-04T13:06:52;14.73;;;4.60;;
21281;SDS011;10800;53.096;18.328;2022-11-04T13:12:02;8.33;;;4.60;;
21281;SDS011;10800;53.096;18.328;2022-11-04T13:17:13;19.83;;;8.37;;
21281;SDS011;10800;53.096;18.328;2022-11-04T13:22:22;17.60;;;5.97;;
21281;SDS011;10800;53.096;18.328;2022-11-04T13:27:35;11.43;;;4.27;;
21281;SDS011;10800;53.096;18.328;2022-11-04T13:32:54;28.10;;;7.93;;
21281;SDS011;10800;53.096;18.328;2022-11-04T13:38:21;13.50;;;5.43;;
21281;SDS011;10800;53.096;18.328;2022-11-04T13:43:33;14.27;;;5.07;;
21281;SDS011;10800;53.096;18.328;2022-11-04T13:48:55;15.30;;;5.17;;
21281;SDS011;10800;53.096;18.328;2022-11-04T13:53:58;11.20;;;5.40;;
21281;SDS011;10800;53.096;18.328;2022-11-04T14:04:29;9.33;;;5.20;;
21281;SDS011;10800;53.096;18.328;2022-11-04T14:09:36;11.27;;;4.67;;
21281;SDS011;10800;53.096;18.328;2022-11-04T14:14:49;10.93;;;4.07;;
21281;SDS011;10800;53.096;18.328;2022-11-04T14:25:30;8.23;;;4.50;;
21281;SDS011;10800;53.096;18.328;2022-11-04T14:30:45;12.37;;;4.03;;
21281;SDS011;10800;53.096;18.328;2022-11-04T14:41:53;7.33;;;3.63;;
21281;SDS011;10800;53.096;18.328;2022-11-04T14:46:45;11.60;;;4.97;;
21281;SDS011;10800;53.096;18.328;2022-11-04T14:51:53;9.33;;;3.90;;
21281;SDS011;10800;53.096;18.328;2022-11-04T14:57:22;19.40;;;7.63;;
21281;SDS011;10800;53.096;18.328;2022-11-04T15:02:21;11.17;;;6.13;;
21281;SDS011;10800;53.096;18.328;2022-11-04T15:07:32;12.07;;;6.33;;
21281;SDS011;10800;53.096;18.328;2022-11-04T15:12:43;10.27;;;4.57;;
21281;SDS011;10800;53.096;18.328;2022-11-04T15:17:58;16.37;;;4.57;;
21281;SDS011;10800;53.096;18.328;2022-11-04T15:23:08;12.10;;;4.90;;
21281;SDS011;10800;53.096;18.328;2022-11-04T15:28:25;14.37;;;5.37;;
21281;SDS011;10800;53.096;18.328;2022-11-04T15:33:53;13.97;;;4.93;;
21281;SDS011;10800;53.096;18.328;2022-11-04T15:39:10;19.30;;;8.47;;
21281;SDS011;10800;53.096;18.328;2022-11-04T15:44:30;20.33;;;6.17;;
21281;SDS011;10800;53.096;18.328;2022-11-04T15:54:55;9.10;;;5.37;;
21281;SDS011;10800;53.096;18.328;2022-11-04T16:00:07;33.07;;;8.83;;
21281;SDS011;10800;53.096;18.328;2022-11-04T16:10:30;18.53;;;5.67;;
21281;SDS011;10800;53.096;18.328;2022-11-04T16:15:39;19.53;;;8.23;;
21281;SDS011;10800;53.096;18.328;2022-11-04T16:21:05;12.80;;;6.03;;
21281;SDS011;10800;53.096;18.328;2022-11-04T16:26:14;14.00;;;6.13;;
21281;SDS011;10800;53.096;18.328;2022-11-04T16:36:31;28.57;;;10.97;;
21281;SDS011;10800;53.096;18.328;2022-11-04T16:41:38;19.10;;;8.07;;
21281;SDS011;10800;53.096;18.328;2022-11-04T16:46:45;86.37;;;20.10;;
21281;SDS011;10800;53.096;18.328;2022-11-04T16:51:54;78.07;;;15.83;;
21281;SDS011;10800;53.096;18.328;2022-11-04T16:57:01;41.93;;;11.03;;
21281;SDS011;10800;53.096;18.328;2022-11-04T17:02:13;70.47;;;15.77;;
21281;SDS011;10800;53.096;18.328;2022-11-04T17:07:24;37.77;;;9.77;;
21281;SDS011;10800;53.096;18.328;2022-11-04T17:12:37;18.97;;;6.97;;
21281;SDS011;10800;53.096;18.328;2022-11-04T17:17:42;12.13;;;5.77;;
21281;SDS011;10800;53.096;18.328;2022-11-04T17:22:47;13.37;;;5.73;;
21281;SDS011;10800;53.096;18.328;2022-11-04T17:27:56;16.27;;;6.87;;
21281;SDS011;10800;53.096;18.328;2022-11-04T17:33:01;9.37;;;5.23;;
21281;SDS011;10800;53.096;18.328;2022-11-04T17:38:11;12.50;;;5.53;;
21281;SDS011;10800;53.096;18.328;2022-11-04T17:43:17;15.47;;;5.77;;
21281;SDS011;10800;53.096;18.328;2022-11-04T17:48:41;13.93;;;6.73;;
21281;SDS011;10800;53.096;18.328;2022-11-04T17:53:46;18.30;;;5.40;;
21281;SDS011;10800;53.096;18.328;2022-11-04T17:58:52;19.10;;;6.30;;
21281;SDS011;10800;53.096;18.328;2022-11-04T18:03:58;16.93;;;6.77;;
21281;SDS011;10800;53.096;18.328;2022-11-04T18:09:03;19.40;;;6.57;;
21281;SDS011;10800;53.096;18.328;2022-11-04T18:14:09;10.40;;;5.90;;
21281;SDS011;10800;53.096;18.328;2022-11-04T18:19:19;10.90;;;5.97;;
21281;SDS011;10800;53.096;18.328;2022-11-04T18:24:26;17.57;;;5.80;;
21281;SDS011;10800;53.096;18.328;2022-11-04T18:29:31;13.70;;;5.90;;
21281;SDS011;10800;53.096;18.328;2022-11-04T18:34:36;13.97;;;5.47;;
21281;SDS011;10800;53.096;18.328;2022-11-04T18:39:42;11.57;;;6.17;;
21281;SDS011;10800;53.096;18.328;2022-11-04T18:44:47;15.13;;;6.10;;
21281;SDS011;10800;53.096;18.328;2022-11-04T18:49:53;18.93;;;6.73;;
21281;SDS011;10800;53.096;18.328;2022-11-04T18:54:59;14.90;;;6.60;;
21281;SDS011;10800;53.096;18.328;2022-11-04T19:00:04;13.70;;;7.07;;
21281;SDS011;10800;53.096;18.328;2022-11-04T19:05:12;24.63;;;6.67;;
21281;SDS011;10800;53.096;18.328;2022-11-04T19:10:17;17.47;;;6.27;;
21281;SDS011;10800;53.096;18.328;2022-11-04T19:15:26;14.17;;;6.87;;
21281;SDS011;10800;53.096;18.328;2022-11-04T19:20:31;15.00;;;5.77;;
21281;SDS011;10800;53.096;18.328;2022-11-04T19:25:38;15.57;;;6.47;;
21281;SDS011;10800;53.096;18.328;2022-11-04T19:30:44;14.23;;;6.23;;
21281;SDS011;10800;53.096;18.328;2022-11-04T19:35:51;13.73;;;6.20;;
21281;SDS011;10800;53.096;18.328;2022-11-04T19:41:01;13.47;;;6.00;;
21281;SDS011;10800;53.096;18.328;2022-11-04T19:46:07;18.40;;;5.83;;
21281;SDS011;10800;53.096;18.328;2022-11-04T19:51:13;14.33;;;5.83;;
21281;SDS011;10800;53.096;18.328;2022-11-04T19:56:18;10.10;;;6.17;;
21281;SDS011;10800;53.096;18.328;2022-11-04T20:01:24;14.40;;;5.73;;
21281;SDS011;10800;53.096;18.328;2022-11-04T20:06:30;10.23;;;5.83;;
21281;SDS011;10800;53.096;18.328;2022-11-04T20:11:36;15.53;;;6.30;;
21281;SDS011;10800;53.096;18.328;2022-11-04T20:17:03;17.03;;;6.27;;
21281;SDS011;10800;53.096;18.328;2022-11-04T20:22:10;15.40;;;5.87;;
21281;SDS011;10800;53.096;18.328;2022-11-04T20:27:21;15.80;;;6.10;;
21281;SDS011;10800;53.096;18.328;2022-11-04T20:32:27;12.83;;;6.27;;
21281;SDS011;10800;53.096;18.328;2022-11-04T20:37:34;16.13;;;6.03;;
21281;SDS011;10800;53.096;18.328;2022-11-04T20:42:40;15.53;;;7.00;;
21281;SDS011;10800;53.096;18.328;2022-11-04T20:47:47;18.83;;;7.77;;
21281;SDS011;10800;53.096;18.328;2022-11-04T20:52:53;8.93;;;5.43;;
21281;SDS011;10800;53.096;18.328;2022-11-04T20:57:58;14.07;;;6.63;;
21281;SDS011;10800;53.096;18.328;2022-11-04T21:03:03;17.43;;;7.43;;
21281;SDS011;10800;53.096;18.328;2022-11-04T21:08:08;19.50;;;7.30;;
21281;SDS011;10800;53.096;18.328;2022-11-04T21:13:14;26.63;;;8.27;;
21281;SDS011;10800;53.096;18.328;2022-11-04T21:18:21;24.00;;;7.80;;
21281;SDS011;10800;53.096;18.328;2022-11-04T21:23:28;18.63;;;8.10;;
21281;SDS011;10800;53.096;18.328;2022-11-04T21:28:35;20.50;;;8.80;;
21281;SDS011;10800;53.096;18.328;2022-11-04T21:33:42;21.43;;;8.30;;
21281;SDS011;10800;53.096;18.328;2022-11-04T21:38:49;16.73;;;6.60;;
21281;SDS011;10800;53.096;18.328;2022-11-04T21:43:58;20.20;;;7.67;;
21281;SDS011;10800;53.096;18.328;2022-11-04T21:49:05;19.87;;;8.17;;
21281;SDS011;10800;53.096;18.328;2022-11-04T21:54:10;16.50;;;7.37;;
21281;SDS011;10800;53.096;18.328;2022-11-04T21:59:16;19.13;;;8.67;;
21281;SDS011;10800;53.096;18.328;2022-11-04T22:04:21;13.50;;;6.70;;
21281;SDS011;10800;53.096;18.328;2022-11-04T22:09:26;14.93;;;7.17;;
21281;SDS011;10800;53.096;18.328;2022-11-04T22:14:31;27.57;;;8.63;;
21281;SDS011;10800;53.096;18.328;2022-11-04T22:19:37;12.33;;;6.57;;
21281;SDS011;10800;53.096;18.328;2022-11-04T22:24:42;13.57;;;6.70;;
21281;SDS011;10800;53.096;18.328;2022-11-04T22:29:49;17.37;;;6.67;;
21281;SDS011;10800;53.096;18.328;2022-11-04T22:34:54;17.23;;;6.03;;
21281;SDS011;10800;53.096;18.328;2022-11-04T22:39:59;14.17;;;7.33;;
21281;SDS011;10800;53.096;18.328;2022-11-04T22:45:06;10.23;;;6.70;;
21281;SDS011;10800;53.096;18.328;2022-11-04T22:50:13;12.93;;;6.83;;
21281;SDS011;10800;53.096;18.328;2022-11-04T22:55:20;13.37;;;7.17;;
21281;SDS011;10800;53.096;18.328;2022-11-04T23:00:26;11.47;;;7.37;;
21281;SDS011;10800;53.096;18.328;2022-11-04T23:05:31;16.77;;;7.13;;
21281;SDS011;10800;53.096;18.328;2022-11-04T23:10:37;18.97;;;6.87;;
21281;SDS011;10800;53.096;18.328;2022-11-04T23:16:01;21.17;;;6.77;;
21281;SDS011;10800;53.096;18.328;2022-11-04T23:21:24;23.03;;;7.57;;
21281;SDS011;10800;53.096;18.328;2022-11-04T23:26:46;14.30;;;8.13;;
21281;SDS011;10800;53.096;18.328;2022-11-04T23:31:52;21.53;;;8.73;;
21281;SDS011;10800;53.096;18.328;2022-11-04T23:36:59;15.83;;;7.10;;
21281;SDS011;10800;53.096;18.328;2022-11-04T23:42:18;16.40;;;7.37;;
21281;SDS011;10800;53.096;18.328;2022-11-04T23:47:28;17.37;;;6.97;;
21281;SDS011;10800;53.096;18.328;2022-11-04T23:52:53;17.87;;;8.37;;
21281;SDS011;10800;53.096;18.328;2022-11-04T23:58:17;13.30;;;7.27;;
